sensor_id;sensor_type;location;lat;lon;timestamp;pressure;altitude;pressure_sealevel;temperature;humidity
36386;BME280;24125;47.482;8.770;2023-07-16T00:02:31;96343.91;;;22.75;87.00
36386;BME280;24125;47.482;8.770;2023-07-16T00:05:04;96352.53;;;22.63;87.00
36386;BME280;24125;47.482;8.770;2023-07-16T00:07:37;96358.41;;;22.51;87.05
36386;BME280;24125;47.482;8.770;2023-07-16T00:10:10;96358.47;;;22.40;87.07
36386;BME280;24125;47.482;8.770;2023-07-16T00:12:43;96352.34;;;22.29;87.09
36386;BME280;24125;47.482;8.770;2023-07-16T00:15:17;96341.50;;;22.18;87.19
36386;BME280;24125;47.482;8.770;2023-07-16T00:17:50;96352.44;;;22.08;87.12
36386;BME280;24125;47.482;8.770;2023-07-16T00:20:23;96402.19;;;21.98;87.00
36386;BME280;24125;47.482;8.770;2023-07-16T00:22:56;96392.50;;;21.86;87.09
36386;BME280;24125;47.482;8.770;2023-07-16T00:25:29;96390.56;;;21.76;86.84
36386;BME280;24125;47.482;8.770;2023-07-16T00:28:02;96380.50;;;21.66;86.89
36386;BME280;24125;47.482;8.770;2023-07-16T00:30:37;96375.47;;;21.54;86.89
36386;BME280;24125;47.482;8.770;2023-07-16T00:33:09;96383.28;;;21.44;86.89
36386;BME280;24125;47.482;8.770;2023-07-16T00:35:46;96386.38;;;21.32;86.80
36386;BME280;24125;47.482;8.770;2023-07-16T00:38:19;96386.00;;;21.23;87.09
36386;BME280;24125;47.482;8.770;2023-07-16T00:40:52;96389.06;;;21.15;87.23
36386;BME280;24125;47.482;8.770;2023-07-16T00:43:25;96397.22;;;21.07;87.39
36386;BME280;24125;47.482;8.770;2023-07-16T00:45:59;96395.66;;;20.99;87.30
36386;BME280;24125;47.482;8.770;2023-07-16T00:48:32;96392.53;;;20.94;87.62
36386;BME280;24125;47.482;8.770;2023-07-16T00:51:05;96395.25;;;20.87;87.73
36386;BME280;24125;47.482;8.770;2023-07-16T00:53:38;96392.56;;;20.83;87.96
36386;BME280;24125;47.482;8.770;2023-07-16T00:56:12;96396.81;;;20.81;88.16
36386;BME280;24125;47.482;8.770;2023-07-16T00:58:48;96389.44;;;20.78;88.48
36386;BME280;24125;47.482;8.770;2023-07-16T01:01:22;96402.22;;;20.77;88.91
36386;BME280;24125;47.482;8.770;2023-07-16T01:03:55;96394.09;;;20.77;89.22
36386;BME280;24125;47.482;8.770;2023-07-16T01:06:30;96414.25;;;20.80;89.25
36386;BME280;24125;47.482;8.770;2023-07-16T01:09:07;96398.75;;;20.80;89.61
36386;BME280;24125;47.482;8.770;2023-07-16T01:11:40;96389.06;;;20.83;89.70
36386;BME280;24125;47.482;8.770;2023-07-16T01:14:15;96386.72;;;20.85;89.67
36386;BME280;24125;47.482;8.770;2023-07-16T01:16:50;96386.72;;;20.85;89.94
36386;BME280;24125;47.482;8.770;2023-07-16T01:19:29;96394.47;;;20.86;89.60
36386;BME280;24125;47.482;8.770;2023-07-16T01:22:09;96412.31;;;20.87;89.67
36386;BME280;24125;47.482;8.770;2023-07-16T01:24:53;96405.34;;;20.86;89.66
36386;BME280;24125;47.482;8.770;2023-07-16T01:30:23;96415.41;;;20.86;89.34
36386;BME280;24125;47.482;8.770;2023-07-16T01:32:59;96404.97;;;20.84;89.39
36386;BME280;24125;47.482;8.770;2023-07-16T01:35:33;96403.41;;;20.83;89.49
36386;BME280;24125;47.482;8.770;2023-07-16T01:38:08;96407.66;;;20.81;89.30
36386;BME280;24125;47.482;8.770;2023-07-16T01:40:41;96414.25;;;20.80;89.33
36386;BME280;24125;47.482;8.770;2023-07-16T01:43:14;96413.06;;;20.77;89.27
36386;BME280;24125;47.482;8.770;2023-07-16T01:45:48;96422.38;;;20.76;89.15
36386;BME280;24125;47.482;8.770;2023-07-16T01:48:24;96420.06;;;20.75;89.46
36386;BME280;24125;47.482;8.770;2023-07-16T01:50:58;96415.78;;;20.74;89.46
36386;BME280;24125;47.482;8.770;2023-07-16T01:53:31;96414.25;;;20.73;89.61
36386;BME280;24125;47.482;8.770;2023-07-16T01:56:03;96405.31;;;20.72;89.43
36386;BME280;24125;47.482;8.770;2023-07-16T01:58:36;96408.41;;;20.70;89.43
36386;BME280;24125;47.482;8.770;2023-07-16T02:01:10;96403.78;;;20.71;89.47
36386;BME280;24125;47.482;8.770;2023-07-16T02:03:43;96413.06;;;20.70;89.77
36386;BME280;24125;47.482;8.770;2023-07-16T02:06:16;96419.28;;;20.70;89.63
36386;BME280;24125;47.482;8.770;2023-07-16T02:08:50;96430.13;;;20.70;89.46
36386;BME280;24125;47.482;8.770;2023-07-16T02:11:23;96428.56;;;20.69;89.54
36386;BME280;24125;47.482;8.770;2023-07-16T02:13:56;96442.50;;;20.68;89.70
36386;BME280;24125;47.482;8.770;2023-07-16T02:16:30;96446.00;;;20.68;89.46
36386;BME280;24125;47.482;8.770;2023-07-16T02:19:03;96430.50;;;20.65;89.71
36386;BME280;24125;47.482;8.770;2023-07-16T02:21:36;96406.88;;;20.66;89.71
36386;BME280;24125;47.482;8.770;2023-07-16T02:24:09;96412.69;;;20.64;89.61
36386;BME280;24125;47.482;8.770;2023-07-16T02:26:42;96422.75;;;20.64;89.68
36386;BME280;24125;47.482;8.770;2023-07-16T02:29:15;96441.75;;;20.64;89.78
36386;BME280;24125;47.482;8.770;2023-07-16T02:31:49;96440.97;;;20.63;89.88
36386;BME280;24125;47.482;8.770;2023-07-16T02:34:22;96427.41;;;20.63;89.64
36386;BME280;24125;47.482;8.770;2023-07-16T02:36:54;96437.88;;;20.65;89.82
36386;BME280;24125;47.482;8.770;2023-07-16T02:39:27;96435.53;;;20.63;89.78
36386;BME280;24125;47.482;8.770;2023-07-16T02:42:00;96423.13;;;20.62;89.53
36386;BME280;24125;47.482;8.770;2023-07-16T02:44:33;96423.88;;;20.59;89.48
36386;BME280;24125;47.482;8.770;2023-07-16T02:47:11;96422.72;;;20.57;89.37
36386;BME280;24125;47.482;8.770;2023-07-16T02:49:44;96432.03;;;20.56;89.42
36386;BME280;24125;47.482;8.770;2023-07-16T02:52:17;96437.44;;;20.52;89.43
36386;BME280;24125;47.482;8.770;2023-07-16T02:54:50;96421.53;;;20.51;89.33
36386;BME280;24125;47.482;8.770;2023-07-16T02:57:23;96419.22;;;20.49;89.50
36386;BME280;24125;47.482;8.770;2023-07-16T02:59:56;96428.53;;;20.48;89.34
36386;BME280;24125;47.482;8.770;2023-07-16T03:02:30;96433.94;;;20.48;89.50
36386;BME280;24125;47.482;8.770;2023-07-16T03:05:03;96440.13;;;20.45;89.62
36386;BME280;24125;47.482;8.770;2023-07-16T03:07:36;96418.06;;;20.47;89.73
36386;BME280;24125;47.482;8.770;2023-07-16T03:10:09;96396.34;;;20.47;89.63
36386;BME280;24125;47.482;8.770;2023-07-16T03:12:42;96401.00;;;20.46;89.74
36386;BME280;24125;47.482;8.770;2023-07-16T03:15:15;96413.00;;;20.45;89.60
36386;BME280;24125;47.482;8.770;2023-07-16T03:17:49;96424.22;;;20.44;89.55
36386;BME280;24125;47.482;8.770;2023-07-16T03:20:22;96430.03;;;20.42;89.54
36386;BME280;24125;47.482;8.770;2023-07-16T03:22:55;96437.38;;;20.42;89.36
36386;BME280;24125;47.482;8.770;2023-07-16T03:25:28;96439.31;;;20.41;89.47
36386;BME280;24125;47.482;8.770;2023-07-16T03:28:00;96430.81;;;20.39;89.53
36386;BME280;24125;47.482;8.770;2023-07-16T03:30:33;96447.88;;;20.40;89.50
36386;BME280;24125;47.482;8.770;2023-07-16T03:33:07;96445.53;;;20.38;89.53
36386;BME280;24125;47.482;8.770;2023-07-16T03:35:42;96443.59;;;20.39;89.42
36386;BME280;24125;47.482;8.770;2023-07-16T03:38:15;96433.13;;;20.37;89.53
36386;BME280;24125;47.482;8.770;2023-07-16T03:40:48;96441.25;;;20.37;89.53
36386;BME280;24125;47.482;8.770;2023-07-16T03:43:21;96446.69;;;20.37;89.68
36386;BME280;24125;47.482;8.770;2023-07-16T03:45:55;96456.38;;;20.38;89.79
36386;BME280;24125;47.482;8.770;2023-07-16T03:48:29;96461.78;;;20.38;89.81
36386;BME280;24125;47.482;8.770;2023-07-16T03:51:02;96469.94;;;20.38;89.75
36386;BME280;24125;47.482;8.770;2023-07-16T03:53:35;96471.50;;;20.39;89.94
36386;BME280;24125;47.482;8.770;2023-07-16T03:56:08;96468.78;;;20.39;89.68
36386;BME280;24125;47.482;8.770;2023-07-16T03:58:41;96461.41;;;20.40;89.91
36386;BME280;24125;47.482;8.770;2023-07-16T04:01:13;96459.50;;;20.40;89.87
36386;BME280;24125;47.482;8.770;2023-07-16T04:03:48;96430.81;;;20.39;89.88
36386;BME280;24125;47.482;8.770;2023-07-16T04:06:20;96445.94;;;20.40;89.72
36386;BME280;24125;47.482;8.770;2023-07-16T04:08:53;96450.19;;;20.38;89.54
36386;BME280;24125;47.482;8.770;2023-07-16T04:11:26;96455.97;;;20.36;89.31
36386;BME280;24125;47.482;8.770;2023-07-16T04:13:59;96454.75;;;20.33;89.47
36386;BME280;24125;47.482;8.770;2023-07-16T04:16:32;96449.34;;;20.33;89.42
36386;BME280;24125;47.482;8.770;2023-07-16T04:19:06;96449.34;;;20.30;89.41
36386;BME280;24125;47.482;8.770;2023-07-16T04:21:39;96458.25;;;20.30;89.38
36386;BME280;24125;47.482;8.770;2023-07-16T04:24:12;96460.19;;;20.30;89.49
36386;BME280;24125;47.482;8.770;2023-07-16T04:26:45;96458.63;;;20.29;89.48
36386;BME280;24125;47.482;8.770;2023-07-16T04:29:18;96450.50;;;20.29;89.50
36386;BME280;24125;47.482;8.770;2023-07-16T04:31:50;96459.41;;;20.29;89.48
36386;BME280;24125;47.482;8.770;2023-07-16T04:34:25;96465.22;;;20.28;89.55
36386;BME280;24125;47.482;8.770;2023-07-16T04:36:57;96460.56;;;20.28;89.48
36386;BME280;24125;47.482;8.770;2023-07-16T04:39:30;96467.91;;;20.28;89.49
36386;BME280;24125;47.482;8.770;2023-07-16T04:42:03;96469.44;;;20.25;89.49
36386;BME280;24125;47.482;8.770;2023-07-16T04:44:36;96469.84;;;20.27;89.47
36386;BME280;24125;47.482;8.770;2023-07-16T04:47:09;96473.72;;;20.26;89.84
36386;BME280;24125;47.482;8.770;2023-07-16T04:49:43;96493.88;;;20.29;90.06
36386;BME280;24125;47.482;8.770;2023-07-16T04:52:16;96494.66;;;20.33;90.72
36386;BME280;24125;47.482;8.770;2023-07-16T04:54:48;96496.28;;;20.38;90.83
36386;BME280;24125;47.482;8.770;2023-07-16T04:57:21;96485.81;;;20.43;91.00
36386;BME280;24125;47.482;8.770;2023-07-16T04:59:54;96493.63;;;20.48;91.19
36386;BME280;24125;47.482;8.770;2023-07-16T05:02:27;96480.03;;;20.52;91.25
36386;BME280;24125;47.482;8.770;2023-07-16T05:05:01;96487.44;;;20.58;91.34
36386;BME280;24125;47.482;8.770;2023-07-16T05:07:35;96483.22;;;20.64;91.26
36386;BME280;24125;47.482;8.770;2023-07-16T05:10:08;96480.09;;;20.69;91.50
36386;BME280;24125;47.482;8.770;2023-07-16T05:12:40;96482.84;;;20.77;91.44
36386;BME280;24125;47.482;8.770;2023-07-16T05:15:14;96488.31;;;20.84;91.83
36386;BME280;24125;47.482;8.770;2023-07-16T05:17:47;96504.59;;;20.91;91.84
36386;BME280;24125;47.482;8.770;2023-07-16T05:20:21;96503.84;;;20.97;91.84
36386;BME280;24125;47.482;8.770;2023-07-16T05:22:54;96516.25;;;21.02;91.75
36386;BME280;24125;47.482;8.770;2023-07-16T05:25:27;96513.16;;;21.07;91.82
36386;BME280;24125;47.482;8.770;2023-07-16T05:28:03;96517.44;;;21.12;91.53
36386;BME280;24125;47.482;8.770;2023-07-16T05:30:35;96509.72;;;21.17;91.80
36386;BME280;24125;47.482;8.770;2023-07-16T05:33:08;96514.78;;;21.26;92.05
36386;BME280;24125;47.482;8.770;2023-07-16T05:35:43;96481.41;;;21.29;91.93
36386;BME280;24125;47.482;8.770;2023-07-16T05:38:21;96485.69;;;21.33;91.71
36386;BME280;24125;47.482;8.770;2023-07-16T05:40:54;96498.13;;;21.34;91.12
36386;BME280;24125;47.482;8.770;2023-07-16T05:43:32;96488.81;;;21.35;91.10
36386;BME280;24125;47.482;8.770;2023-07-16T05:46:05;96486.06;;;21.39;91.13
36386;BME280;24125;47.482;8.770;2023-07-16T05:48:38;96464.38;;;21.42;91.36
36386;BME280;24125;47.482;8.770;2023-07-16T05:51:12;96458.13;;;21.45;91.38
36386;BME280;24125;47.482;8.770;2023-07-16T05:53:45;96468.22;;;21.49;91.40
36386;BME280;24125;47.482;8.770;2023-07-16T05:56:17;96472.88;;;21.48;91.15
36386;BME280;24125;47.482;8.770;2023-07-16T05:58:50;96489.59;;;21.50;90.92
36386;BME280;24125;47.482;8.770;2023-07-16T06:01:23;96489.19;;;21.52;90.97
36386;BME280;24125;47.482;8.770;2023-07-16T06:03:56;96493.06;;;21.54;91.03
36386;BME280;24125;47.482;8.770;2023-07-16T06:06:30;96496.56;;;21.65;92.21
36386;BME280;24125;47.482;8.770;2023-07-16T06:09:03;96495.38;;;21.80;93.18
36386;BME280;24125;47.482;8.770;2023-07-16T06:11:36;96492.25;;;21.96;93.90
36386;BME280;24125;47.482;8.770;2023-07-16T06:14:08;96489.13;;;22.15;94.97
36386;BME280;24125;47.482;8.770;2023-07-16T06:16:41;96475.84;;;22.39;96.06
36386;BME280;24125;47.482;8.770;2023-07-16T06:19:14;96479.25;;;22.64;97.24
36386;BME280;24125;47.482;8.770;2023-07-16T06:21:49;96478.38;;;22.88;97.85
36386;BME280;24125;47.482;8.770;2023-07-16T06:24:21;96486.41;;;23.10;98.20
36386;BME280;24125;47.482;8.770;2023-07-16T06:26:54;96483.94;;;23.29;98.51
36386;BME280;24125;47.482;8.770;2023-07-16T06:29:27;96480.72;;;23.49;98.69
36386;BME280;24125;47.482;8.770;2023-07-16T06:31:59;96478.63;;;23.63;98.53
36386;BME280;24125;47.482;8.770;2023-07-16T06:34:32;96479.34;;;23.71;97.28
36386;BME280;24125;47.482;8.770;2023-07-16T06:37:07;96487.47;;;23.78;95.98
36386;BME280;24125;47.482;8.770;2023-07-16T06:39:39;96484.72;;;23.82;95.32
36386;BME280;24125;47.482;8.770;2023-07-16T06:42:12;96470.22;;;23.88;95.07
36386;BME280;24125;47.482;8.770;2023-07-16T06:44:45;96476.38;;;23.96;95.44
36386;BME280;24125;47.482;8.770;2023-07-16T06:47:18;96480.19;;;24.05;95.47
36386;BME280;24125;47.482;8.770;2023-07-16T06:49:50;96486.38;;;24.10;95.20
36386;BME280;24125;47.482;8.770;2023-07-16T06:52:24;96492.56;;;24.14;94.98
36386;BME280;24125;47.482;8.770;2023-07-16T06:54:59;96496.44;;;24.16;94.34
36386;BME280;24125;47.482;8.770;2023-07-16T06:57:31;96498.78;;;24.21;94.27
36386;BME280;24125;47.482;8.770;2023-07-16T07:00:05;96496.38;;;24.23;94.17
36386;BME280;24125;47.482;8.770;2023-07-16T07:02:42;96501.81;;;24.27;94.05
36386;BME280;24125;47.482;8.770;2023-07-16T07:05:15;96490.84;;;24.30;94.01
36386;BME280;24125;47.482;8.770;2023-07-16T07:07:49;96492.38;;;24.35;94.07
36386;BME280;24125;47.482;8.770;2023-07-16T07:10:22;96494.66;;;24.40;93.86
36386;BME280;24125;47.482;8.770;2023-07-16T07:12:55;96482.16;;;24.42;93.56
36386;BME280;24125;47.482;8.770;2023-07-16T07:15:27;96468.03;;;24.48;93.70
36386;BME280;24125;47.482;8.770;2023-07-16T07:18:00;96475.72;;;24.56;94.01
36386;BME280;24125;47.482;8.770;2023-07-16T07:20:33;96473.34;;;24.62;94.03
36386;BME280;24125;47.482;8.770;2023-07-16T07:23:07;96462.38;;;24.65;93.80
36386;BME280;24125;47.482;8.770;2023-07-16T07:25:40;96460.78;;;24.68;93.05
36386;BME280;24125;47.482;8.770;2023-07-16T07:28:13;96460.00;;;24.67;92.66
36386;BME280;24125;47.482;8.770;2023-07-16T07:30:46;96461.97;;;24.67;92.71
36386;BME280;24125;47.482;8.770;2023-07-16T07:33:19;96462.31;;;24.69;93.08
36386;BME280;24125;47.482;8.770;2023-07-16T07:35:53;96465.78;;;24.73;93.40
36386;BME280;24125;47.482;8.770;2023-07-16T07:38:27;96460.69;;;24.75;93.56
36386;BME280;24125;47.482;8.770;2023-07-16T07:41:00;96463.38;;;24.78;94.00
36386;BME280;24125;47.482;8.770;2023-07-16T07:43:33;96462.56;;;24.81;93.54
36386;BME280;24125;47.482;8.770;2023-07-16T07:46:06;96479.28;;;24.83;93.44
36386;BME280;24125;47.482;8.770;2023-07-16T07:48:39;96491.34;;;24.86;93.01
36386;BME280;24125;47.482;8.770;2023-07-16T07:51:12;96486.66;;;24.87;93.32
36386;BME280;24125;47.482;8.770;2023-07-16T07:53:46;96495.63;;;24.87;92.99
36386;BME280;24125;47.482;8.770;2023-07-16T07:56:19;96477.72;;;24.82;92.00
36386;BME280;24125;47.482;8.770;2023-07-16T07:58:52;96464.97;;;24.76;91.03
36386;BME280;24125;47.482;8.770;2023-07-16T08:01:25;96463.88;;;24.70;90.66
36386;BME280;24125;47.482;8.770;2023-07-16T08:03:58;96465.53;;;24.64;90.39
36386;BME280;24125;47.482;8.770;2023-07-16T08:06:31;96467.53;;;24.56;90.26
36386;BME280;24125;47.482;8.770;2023-07-16T08:09:05;96465.75;;;24.46;89.44
36386;BME280;24125;47.482;8.770;2023-07-16T08:11:38;96464.28;;;24.38;89.16
36386;BME280;24125;47.482;8.770;2023-07-16T08:14:11;96469.41;;;24.32;89.86
36386;BME280;24125;47.482;8.770;2023-07-16T08:16:43;96471.72;;;24.34;90.47
36386;BME280;24125;47.482;8.770;2023-07-16T08:19:16;96456.88;;;24.38;90.81
36386;BME280;24125;47.482;8.770;2023-07-16T08:21:49;96466.16;;;24.44;90.96
36386;BME280;24125;47.482;8.770;2023-07-16T08:24:23;96481.25;;;24.53;91.60
36386;BME280;24125;47.482;8.770;2023-07-16T08:26:57;96470.25;;;24.60;92.35
36386;BME280;24125;47.482;8.770;2023-07-16T08:29:29;96466.91;;;24.75;93.53
36386;BME280;24125;47.482;8.770;2023-07-16T08:32:02;96463.19;;;24.93;94.23
36386;BME280;24125;47.482;8.770;2023-07-16T08:34:35;96464.97;;;25.06;94.33
36386;BME280;24125;47.482;8.770;2023-07-16T08:37:08;96482.69;;;25.22;94.36
36386;BME280;24125;47.482;8.770;2023-07-16T08:39:42;96472.78;;;25.31;92.83
36386;BME280;24125;47.482;8.770;2023-07-16T08:42:15;96470.75;;;25.35;89.88
36386;BME280;24125;47.482;8.770;2023-07-16T08:44:48;96484.38;;;25.39;89.91
36386;BME280;24125;47.482;8.770;2023-07-16T08:47:21;96487.06;;;25.42;89.51
36386;BME280;24125;47.482;8.770;2023-07-16T08:49:54;96477.97;;;25.49;89.45
36386;BME280;24125;47.482;8.770;2023-07-16T08:52:28;96466.56;;;25.54;88.57
36386;BME280;24125;47.482;8.770;2023-07-16T08:55:02;96452.47;;;25.59;86.31
36386;BME280;24125;47.482;8.770;2023-07-16T08:57:35;96444.13;;;25.66;89.18
36386;BME280;24125;47.482;8.770;2023-07-16T09:00:09;96442.47;;;25.72;88.97
36386;BME280;24125;47.482;8.770;2023-07-16T09:02:42;96437.22;;;25.81;88.66
36386;BME280;24125;47.482;8.770;2023-07-16T09:05:15;96420.31;;;25.86;87.65
36386;BME280;24125;47.482;8.770;2023-07-16T09:08:09;96433.09;;;25.93;88.51
36386;BME280;24125;47.482;8.770;2023-07-16T09:10:52;96448.19;;;26.01;88.72
36386;BME280;24125;47.482;8.770;2023-07-16T09:13:25;96453.13;;;26.10;89.07
36386;BME280;24125;47.482;8.770;2023-07-16T09:15:59;96467.34;;;26.21;89.79
36386;BME280;24125;47.482;8.770;2023-07-16T09:18:32;96473.06;;;26.30;89.77
36386;BME280;24125;47.482;8.770;2023-07-16T09:21:05;96480.72;;;26.39;89.30
36386;BME280;24125;47.482;8.770;2023-07-16T09:23:38;96483.66;;;26.48;89.60
36386;BME280;24125;47.482;8.770;2023-07-16T09:26:15;96472.59;;;26.55;88.88
36386;BME280;24125;47.482;8.770;2023-07-16T09:28:48;96482.22;;;26.63;87.69
36386;BME280;24125;47.482;8.770;2023-07-16T09:31:21;96477.78;;;26.69;88.00
36386;BME280;24125;47.482;8.770;2023-07-16T09:33:56;96484.28;;;26.75;88.96
36386;BME280;24125;47.482;8.770;2023-07-16T09:36:30;96492.03;;;26.80;86.41
36386;BME280;24125;47.482;8.770;2023-07-16T09:39:02;96496.22;;;26.85;86.86
36386;BME280;24125;47.482;8.770;2023-07-16T09:41:37;96487.50;;;26.90;87.24
36386;BME280;24125;47.482;8.770;2023-07-16T09:44:13;96477.97;;;26.98;88.00
36386;BME280;24125;47.482;8.770;2023-07-16T09:46:46;96476.28;;;27.04;86.40
36386;BME280;24125;47.482;8.770;2023-07-16T09:49:19;96476.47;;;27.13;87.53
36386;BME280;24125;47.482;8.770;2023-07-16T09:51:52;96478.19;;;27.23;87.31
36386;BME280;24125;47.482;8.770;2023-07-16T09:54:29;96477.16;;;27.33;87.11
36386;BME280;24125;47.482;8.770;2023-07-16T09:57:06;96480.75;;;27.47;86.71
36386;BME280;24125;47.482;8.770;2023-07-16T09:59:40;96466.72;;;27.61;87.62
36386;BME280;24125;47.482;8.770;2023-07-16T10:02:13;96481.31;;;27.74;87.62
36386;BME280;24125;47.482;8.770;2023-07-16T10:04:46;96480.59;;;27.86;87.24
36386;BME280;24125;47.482;8.770;2023-07-16T10:07:20;96473.28;;;27.96;86.31
36386;BME280;24125;47.482;8.770;2023-07-16T10:09:54;96484.41;;;28.05;86.69
36386;BME280;24125;47.482;8.770;2023-07-16T10:12:29;96483.03;;;28.13;86.43
36386;BME280;24125;47.482;8.770;2023-07-16T10:15:02;96484.84;;;28.20;85.90
36386;BME280;24125;47.482;8.770;2023-07-16T10:17:35;96485.94;;;28.22;85.77
36386;BME280;24125;47.482;8.770;2023-07-16T10:20:08;96475.66;;;28.26;85.42
36386;BME280;24125;47.482;8.770;2023-07-16T10:22:43;96475.22;;;28.28;85.68
36386;BME280;24125;47.482;8.770;2023-07-16T10:25:22;96472.78;;;28.30;85.18
36386;BME280;24125;47.482;8.770;2023-07-16T10:27:56;96475.13;;;28.31;85.45
36386;BME280;24125;47.482;8.770;2023-07-16T10:30:29;96484.56;;;28.30;84.65
36386;BME280;24125;47.482;8.770;2023-07-16T10:33:03;96486.53;;;28.30;84.06
36386;BME280;24125;47.482;8.770;2023-07-16T10:35:40;96488.50;;;28.29;83.96
36386;BME280;24125;47.482;8.770;2023-07-16T10:38:13;96484.97;;;28.29;83.99
36386;BME280;24125;47.482;8.770;2023-07-16T10:40:48;96484.56;;;28.30;84.18
36386;BME280;24125;47.482;8.770;2023-07-16T10:43:23;96484.56;;;28.30;84.15
36386;BME280;24125;47.482;8.770;2023-07-16T10:45:56;96477.09;;;28.31;84.18
36386;BME280;24125;47.482;8.770;2023-07-16T10:48:29;96485.66;;;28.33;84.11
36386;BME280;24125;47.482;8.770;2023-07-16T10:51:02;96486.31;;;28.37;84.54
36386;BME280;24125;47.482;8.770;2023-07-16T10:53:40;96488.91;;;28.44;84.70
36386;BME280;24125;47.482;8.770;2023-07-16T10:56:13;96479.69;;;28.50;85.31
36386;BME280;24125;47.482;8.770;2023-07-16T10:58:47;96473.56;;;28.59;85.47
36386;BME280;24125;47.482;8.770;2023-07-16T11:01:21;96475.66;;;28.68;85.96
36386;BME280;24125;47.482;8.770;2023-07-16T11:03:59;96482.09;;;28.77;84.70
36386;BME280;24125;47.482;8.770;2023-07-16T11:06:32;96486.16;;;28.85;85.00
36386;BME280;24125;47.482;8.770;2023-07-16T11:09:06;96474.53;;;28.94;85.14
36386;BME280;24125;47.482;8.770;2023-07-16T11:11:40;96469.56;;;29.02;85.16
36386;BME280;24125;47.482;8.770;2023-07-16T11:14:14;96472.44;;;29.11;85.99
36386;BME280;24125;47.482;8.770;2023-07-16T11:16:47;96476.59;;;29.15;84.34
36386;BME280;24125;47.482;8.770;2023-07-16T11:19:20;96468.25;;;29.19;83.04
36386;BME280;24125;47.482;8.770;2023-07-16T11:21:53;96465.41;;;29.22;82.00
36386;BME280;24125;47.482;8.770;2023-07-16T11:24:26;96461.34;;;29.27;81.88
36386;BME280;24125;47.482;8.770;2023-07-16T11:26:59;96468.28;;;29.32;83.58
36386;BME280;24125;47.482;8.770;2023-07-16T11:29:36;96466.97;;;29.36;83.67
36386;BME280;24125;47.482;8.770;2023-07-16T11:32:09;96472.38;;;29.40;81.70
36386;BME280;24125;47.482;8.770;2023-07-16T11:34:51;96468.28;;;29.44;85.52
36386;BME280;24125;47.482;8.770;2023-07-16T11:37:25;96464.31;;;29.45;83.72
36386;BME280;24125;47.482;8.770;2023-07-16T11:39:58;96466.72;;;29.43;80.48
36386;BME280;24125;47.482;8.770;2023-07-16T11:42:33;96460.47;;;29.43;81.59
36386;BME280;24125;47.482;8.770;2023-07-16T11:45:14;96456.94;;;29.42;82.20
36386;BME280;24125;47.482;8.770;2023-07-16T11:47:47;96456.94;;;29.42;81.64
36386;BME280;24125;47.482;8.770;2023-07-16T11:50:20;96455.41;;;29.41;82.01
36386;BME280;24125;47.482;8.770;2023-07-16T11:52:54;96453.88;;;29.40;82.16
36386;BME280;24125;47.482;8.770;2023-07-16T11:55:27;96448.81;;;29.39;82.32
36386;BME280;24125;47.482;8.770;2023-07-16T11:57:59;96450.38;;;29.40;82.65
36386;BME280;24125;47.482;8.770;2023-07-16T12:00:35;96446.84;;;29.39;82.88
36386;BME280;24125;47.482;8.770;2023-07-16T12:03:08;96450.22;;;29.43;83.33
36386;BME280;24125;47.482;8.770;2023-07-16T12:05:41;96439.91;;;29.47;83.80
36386;BME280;24125;47.482;8.770;2023-07-16T12:08:24;96444.38;;;29.54;83.49
36386;BME280;24125;47.482;8.770;2023-07-16T12:10:57;96442.94;;;29.62;81.97
36386;BME280;24125;47.482;8.770;2023-07-16T12:13:33;96440.72;;;29.70;83.42
36386;BME280;24125;47.482;8.770;2023-07-16T12:16:07;96436.19;;;29.76;83.31
36386;BME280;24125;47.482;8.770;2023-07-16T12:18:40;96442.78;;;29.78;82.74
36386;BME280;24125;47.482;8.770;2023-07-16T12:21:12;96436.06;;;29.79;82.52
36386;BME280;24125;47.482;8.770;2023-07-16T12:23:45;96439.59;;;29.80;82.13
36386;BME280;24125;47.482;8.770;2023-07-16T12:26:18;96441.47;;;29.83;82.75
36386;BME280;24125;47.482;8.770;2023-07-16T12:28:51;96434.28;;;29.85;81.91
36386;BME280;24125;47.482;8.770;2023-07-16T12:31:25;96431.41;;;29.89;82.54
36386;BME280;24125;47.482;8.770;2023-07-16T12:33:58;96424.25;;;29.91;82.63
36386;BME280;24125;47.482;8.770;2023-07-16T12:36:30;96433.94;;;29.96;82.32
36386;BME280;24125;47.482;8.770;2023-07-16T12:39:04;96438.13;;;30.00;83.05
36386;BME280;24125;47.482;8.770;2023-07-16T12:41:36;96437.22;;;30.04;82.34
36386;BME280;24125;47.482;8.770;2023-07-16T12:44:09;96430.50;;;30.05;81.10
36386;BME280;24125;47.482;8.770;2023-07-16T12:46:44;96443.06;;;30.06;82.01
36386;BME280;24125;47.482;8.770;2023-07-16T12:49:17;96440.63;;;30.08;81.65
36386;BME280;24125;47.482;8.770;2023-07-16T12:51:50;96434.78;;;30.06;81.48
36386;BME280;24125;47.482;8.770;2023-07-16T12:54:23;96442.28;;;30.05;81.49
36386;BME280;24125;47.482;8.770;2023-07-16T12:56:56;96426.53;;;30.06;81.30
36386;BME280;24125;47.482;8.770;2023-07-16T12:59:29;96427.63;;;30.08;82.21
36386;BME280;24125;47.482;8.770;2023-07-16T13:02:03;96431.78;;;30.13;82.64
36386;BME280;24125;47.482;8.770;2023-07-16T13:04:36;96428.91;;;30.16;80.55
36386;BME280;24125;47.482;8.770;2023-07-16T13:07:08;96433.84;;;30.21;82.79
36386;BME280;24125;47.482;8.770;2023-07-16T13:09:41;96436.03;;;30.26;82.56
36386;BME280;24125;47.482;8.770;2023-07-16T13:12:14;96434.06;;;30.27;82.84
36386;BME280;24125;47.482;8.770;2023-07-16T13:14:47;96426.53;;;30.27;82.65
36386;BME280;24125;47.482;8.770;2023-07-16T13:17:21;96430.06;;;30.28;82.00
36386;BME280;24125;47.482;8.770;2023-07-16T13:19:55;96430.53;;;30.26;82.18
36386;BME280;24125;47.482;8.770;2023-07-16T13:22:27;96423.59;;;30.22;80.42
36386;BME280;24125;47.482;8.770;2023-07-16T13:25:01;96419.13;;;30.15;80.57
36386;BME280;24125;47.482;8.770;2023-07-16T13:27:34;96417.69;;;30.11;81.65
36386;BME280;24125;47.482;8.770;2023-07-16T13:30:07;96414.13;;;30.01;80.65
36386;BME280;24125;47.482;8.770;2023-07-16T13:32:41;96417.09;;;29.94;80.40
36386;BME280;24125;47.482;8.770;2023-07-16T13:35:14;96418.88;;;29.88;80.45
36386;BME280;24125;47.482;8.770;2023-07-16T13:37:48;96413.63;;;29.81;81.08